createdAt,value
2019-04-09T00:00:46.528Z,7.50
2019-04-09T00:01:46.078Z,7.50
2019-04-09T00:02:46.713Z,7.60
2019-04-09T00:03:45.975Z,7.30
2019-04-09T00:04:45.835Z,7.30
2019-04-09T00:05:45.742Z,7.50
2019-04-09T00:06:45.803Z,7.10
2019-04-09T00:07:56.729Z,7.40
2019-04-09T00:08:45.717Z,7.60
2019-04-09T00:09:45.525Z,7.40
2019-04-09T00:10:45.329Z,7.50
2019-04-09T00:11:45.519Z,7.50
2019-04-09T00:12:45.393Z,8.00
2019-04-09T00:13:45.799Z,7.50
2019-04-09T00:14:44.993Z,7.40
2019-04-09T00:15:45.691Z,7.70
2019-04-09T00:16:45.558Z,7.70
2019-04-09T00:17:44.744Z,7.40
2019-04-09T00:18:45.404Z,7.50
2019-04-09T00:19:45.606Z,7.50
2019-04-09T00:20:44.881Z,7.90
2019-04-09T00:21:44.394Z,7.80
2019-04-09T00:22:44.319Z,7.90
2019-04-09T00:23:44.244Z,8.00
2019-04-09T00:24:44.144Z,8.00
2019-04-09T00:25:44.740Z,8.30
2019-04-09T00:26:49.019Z,8.20
2019-04-09T00:27:43.894Z,8.10
2019-04-09T00:28:43.806Z,8.10
2019-04-09T00:29:44.229Z,8.00
2019-04-09T00:30:43.646Z,7.80
2019-04-09T00:31:43.557Z,8.10
2019-04-09T00:32:43.470Z,7.90
2019-04-09T00:33:43.406Z,7.70
2019-04-09T00:34:44.342Z,8.00
2019-04-09T00:35:44.290Z,8.20
2019-04-09T00:36:44.224Z,7.70
2019-04-09T00:37:43.050Z,8.70
2019-04-09T00:38:43.334Z,8.50
2019-04-09T00:39:43.172Z,8.30
2019-04-09T00:40:42.796Z,8.10
2019-04-09T00:41:42.709Z,8.50
2019-04-09T00:42:43.421Z,9.50
2019-04-09T00:43:43.422Z,9.60
2019-04-09T00:44:42.459Z,15.00
2019-04-09T00:45:42.538Z,9.60
2019-04-09T00:46:42.472Z,10.10
2019-04-09T00:47:42.510Z,13.40
2019-04-09T00:48:42.330Z,11.80
2019-04-09T00:49:42.035Z,10.20
2019-04-09T00:50:41.960Z,9.20
2019-04-09T00:51:41.872Z,8.50
2019-04-09T00:52:42.660Z,11.20
2019-04-09T00:53:42.505Z,8.50
2019-04-09T00:54:41.623Z,9.50
2019-04-09T00:55:41.641Z,8.40
2019-04-09T00:56:42.455Z,9.30
2019-04-09T00:57:41.360Z,8.70
2019-04-09T00:58:41.284Z,9.00
2019-04-09T00:59:42.179Z,8.90
2019-04-09T01:00:44.378Z,9.20
2019-04-09T01:01:42.078Z,11.20
2019-04-09T01:02:40.975Z,9.20
2019-04-09T01:03:40.983Z,8.80
2019-04-09T01:04:40.776Z,9.70
2019-04-09T01:05:40.686Z,9.00
2019-04-09T01:06:41.282Z,8.70
2019-04-09T01:07:41.304Z,9.10
2019-04-09T01:08:40.436Z,8.90
2019-04-09T01:09:41.289Z,8.90
2019-04-09T01:10:40.918Z,8.70
2019-04-09T01:11:40.186Z,8.10
2019-04-09T01:12:40.868Z,9.10
2019-04-09T01:13:40.597Z,9.00
2019-04-09T01:14:40.001Z,8.60
2019-04-09T01:15:40.774Z,8.80
2019-04-09T01:16:40.280Z,9.00
2019-04-09T01:17:40.097Z,8.70
2019-04-09T01:18:39.586Z,8.90
2019-04-09T01:19:40.225Z,8.80
2019-04-09T01:20:40.164Z,8.50
2019-04-09T01:21:39.338Z,8.20
2019-04-09T01:22:39.339Z,8.60
2019-04-09T01:23:39.164Z,8.70
2019-04-09T01:24:40.366Z,8.90
2019-04-09T01:25:39.251Z,8.70
2019-04-09T01:26:38.915Z,8.40
2019-04-09T01:27:39.425Z,8.80
2019-04-09T01:28:38.740Z,9.00
2019-04-09T01:29:38.705Z,8.30
2019-04-09T01:30:38.578Z,8.70
2019-04-09T01:31:39.239Z,8.50
2019-04-09T01:32:38.402Z,8.60
2019-04-09T01:33:38.759Z,8.90
2019-04-09T01:34:38.735Z,9.00
2019-04-09T01:35:38.152Z,9.00
2019-04-09T01:36:38.065Z,8.40
2019-04-09T01:37:37.990Z,9.30
2019-04-09T01:38:38.452Z,9.10
2019-04-09T01:39:38.432Z,8.90
2019-04-09T01:40:37.734Z,9.20
2019-04-09T01:41:37.707Z,8.70
2019-04-09T01:42:37.572Z,8.90
2019-04-09T01:43:37.479Z,8.50
2019-04-09T01:44:38.440Z,8.80
2019-04-09T01:45:37.414Z,8.70
2019-04-09T01:46:37.273Z,8.40
2019-04-09T01:47:37.141Z,8.60
2019-04-09T01:48:37.054Z,8.50
2019-04-09T01:49:36.966Z,9.20
2019-04-09T01:50:37.455Z,8.90
2019-04-09T01:51:37.399Z,8.60
2019-04-09T01:52:36.717Z,8.70
2019-04-09T01:53:36.629Z,8.60
2019-04-09T01:54:36.555Z,8.80
2019-04-09T01:55:36.466Z,8.60
2019-04-09T01:56:36.381Z,8.80
2019-04-09T01:57:36.445Z,9.40
2019-04-09T01:58:37.476Z,8.80
2019-04-09T01:59:36.447Z,9.10
2019-04-09T02:00:36.272Z,9.10
2019-04-09T02:01:35.956Z,9.00
2019-04-09T02:02:35.880Z,9.30
2019-04-09T02:03:35.792Z,8.80
2019-04-09T02:04:35.862Z,8.90
2019-04-09T02:05:35.878Z,8.50
2019-04-09T02:06:35.530Z,9.20
2019-04-09T02:07:35.459Z,9.10
2019-04-09T02:08:36.056Z,8.70
2019-04-09T02:09:35.954Z,8.80
2019-04-09T02:10:35.436Z,8.40
2019-04-09T02:11:35.117Z,8.90
2019-04-09T02:12:35.097Z,9.40
2019-04-09T02:13:34.948Z,9.00
2019-04-09T02:14:34.859Z,9.10
2019-04-09T02:15:35.114Z,9.00
2019-04-09T02:16:35.030Z,8.50
2019-04-09T02:17:34.831Z,9.20
2019-04-09T02:18:34.555Z,9.20
2019-04-09T02:19:34.437Z,8.90
2019-04-09T02:20:35.112Z,9.00
2019-04-09T02:21:35.007Z,9.10
2019-04-09T02:22:34.311Z,9.00
2019-04-09T02:23:34.165Z,9.60
2019-04-09T02:24:34.914Z,9.00
2019-04-09T02:25:33.999Z,9.20
2019-04-09T02:26:34.904Z,9.40
2019-04-09T02:27:40.065Z,9.30
2019-04-09T02:28:33.670Z,9.60
2019-04-09T02:29:33.608Z,9.70
2019-04-09T02:30:33.661Z,9.50
2019-04-09T02:31:34.921Z,8.70
2019-04-09T02:32:34.339Z,8.80
2019-04-09T02:33:33.775Z,9.00
2019-04-09T02:34:33.172Z,9.40
2019-04-09T02:35:33.084Z,9.20
2019-04-09T02:36:38.101Z,9.20
2019-04-09T02:37:34.456Z,9.10
2019-04-09T02:38:32.834Z,9.10
2019-04-09T02:39:32.759Z,9.20
2019-04-09T02:40:32.662Z,8.80
2019-04-09T02:41:32.571Z,9.30
2019-04-09T02:42:32.498Z,9.00
2019-04-09T02:43:32.901Z,9.00
2019-04-09T02:44:33.003Z,8.90
2019-04-09T02:45:33.036Z,8.80
2019-04-09T02:46:32.149Z,12.50
2019-04-09T02:47:32.061Z,9.00
2019-04-09T02:48:31.987Z,9.00
2019-04-09T02:49:31.967Z,9.70
2019-04-09T02:50:32.702Z,8.80
2019-04-09T02:51:32.021Z,9.20
2019-04-09T02:52:31.739Z,9.10
2019-04-09T02:53:31.562Z,8.70
2019-04-09T02:54:31.604Z,9.60
2019-04-09T02:55:31.386Z,8.60
2019-04-09T02:56:32.360Z,9.20
2019-04-09T02:57:31.223Z,9.10
2019-04-09T02:58:31.168Z,9.60
2019-04-09T02:59:31.048Z,8.50
2019-04-09T03:00:30.962Z,9.80
2019-04-09T03:01:31.243Z,8.80
2019-04-09T03:02:30.799Z,9.30
2019-04-09T03:03:31.167Z,10.20
2019-04-09T03:04:31.280Z,9.40
2019-04-09T03:05:30.867Z,9.30
2019-04-09T03:06:30.463Z,9.50
2019-04-09T03:07:30.375Z,8.30
2019-04-09T03:08:31.017Z,11.30
2019-04-09T03:09:30.864Z,8.70
2019-04-09T03:10:30.112Z,9.50
2019-04-09T03:11:30.038Z,9.70
2019-04-09T03:12:29.950Z,9.50
2019-04-09T03:13:29.864Z,9.70
2019-04-09T03:14:30.554Z,9.20
2019-04-09T03:15:29.838Z,9.20
2019-04-09T03:16:29.614Z,9.10
2019-04-09T03:17:29.538Z,9.10
2019-04-09T03:18:29.448Z,9.00
2019-04-09T03:19:29.359Z,9.60
2019-04-09T03:20:29.325Z,8.90
2019-04-09T03:21:30.089Z,11.30
2019-04-09T03:22:29.281Z,14.20
2019-04-09T03:23:29.158Z,10.00
2019-04-09T03:24:29.031Z,12.40
2019-04-09T03:25:28.855Z,9.10
2019-04-09T03:26:29.026Z,11.10
2019-04-09T03:27:28.691Z,10.50
2019-04-09T03:28:28.804Z,9.90
2019-04-09T03:29:28.514Z,9.30
2019-04-09T03:30:28.599Z,9.20
2019-04-09T03:31:29.923Z,12.90
2019-04-09T03:32:29.364Z,9.80
2019-04-09T03:33:29.595Z,9.30
2019-04-09T03:34:30.042Z,9.60
2019-04-09T03:35:28.002Z,9.70
2019-04-09T03:36:27.915Z,9.40
2019-04-09T03:37:28.591Z,10.50
2019-04-09T03:38:28.435Z,8.90
2019-04-09T03:39:27.670Z,9.50
2019-04-09T03:40:27.578Z,9.00
2019-04-09T03:41:27.492Z,9.20
2019-04-09T03:42:28.389Z,9.00
2019-04-09T03:43:28.240Z,9.40
2019-04-09T03:44:27.285Z,9.60
2019-04-09T03:45:27.153Z,9.50
2019-04-09T03:46:27.808Z,9.40
2019-04-09T03:47:27.899Z,9.10
2019-04-09T03:48:27.833Z,8.60
2019-04-09T03:49:27.009Z,9.60
2019-04-09T03:50:27.732Z,9.50
2019-04-09T03:51:26.972Z,9.60
2019-04-09T03:52:27.140Z,9.70
2019-04-09T03:53:26.479Z,9.30
2019-04-09T03:54:26.657Z,9.90
2019-04-09T03:55:26.660Z,9.90
2019-04-09T03:56:26.218Z,9.90
2019-04-09T03:57:26.145Z,9.60
2019-04-09T03:58:27.057Z,9.60
2019-04-09T03:59:25.977Z,9.70
2019-04-09T04:00:26.944Z,9.20
2019-04-09T04:01:25.793Z,9.20
2019-04-09T04:02:27.324Z,9.90
2019-04-09T04:03:25.699Z,9.70
2019-04-09T04:04:25.605Z,9.70
2019-04-09T04:05:25.456Z,9.50
2019-04-09T04:06:25.895Z,9.30
2019-04-09T04:07:25.744Z,9.40
2019-04-09T04:08:25.206Z,9.50
2019-04-09T04:09:25.120Z,10.10
2019-04-09T04:10:25.332Z,9.80
2019-04-09T04:11:25.476Z,9.50
2019-04-09T04:12:25.314Z,10.00
2019-04-09T04:13:24.783Z,9.90
2019-04-09T04:14:24.774Z,9.90
2019-04-09T04:15:24.610Z,9.80
2019-04-09T04:16:24.520Z,10.10
2019-04-09T04:17:24.446Z,9.00
2019-04-09T04:18:24.357Z,9.70
2019-04-09T04:19:24.271Z,9.60
2019-04-09T04:20:24.781Z,11.10
2019-04-09T04:21:24.107Z,12.60
2019-04-09T04:22:24.807Z,9.80
2019-04-09T04:23:24.800Z,11.20
2019-04-09T04:24:24.847Z,14.30
2019-04-09T04:25:23.758Z,19.50
2019-04-09T04:26:24.423Z,21.60
2019-04-09T04:27:23.596Z,14.10
2019-04-09T04:28:29.508Z,11.90
2019-04-09T04:29:23.487Z,12.80
2019-04-09T04:30:23.541Z,10.50
2019-04-09T04:31:23.762Z,9.40
2019-04-09T04:32:23.173Z,9.90
2019-04-09T04:33:23.112Z,10.80
2019-04-09T04:34:23.063Z,9.70
2019-04-09T04:35:22.909Z,10.30
2019-04-09T04:36:23.251Z,10.30
2019-04-09T04:37:22.747Z,9.60
2019-04-09T04:38:22.761Z,10.00
2019-04-09T04:39:22.573Z,10.20
2019-04-09T04:40:23.457Z,10.10
2019-04-09T04:41:22.602Z,10.20
2019-04-09T04:42:22.458Z,9.90
2019-04-09T04:43:22.982Z,9.30
2019-04-09T04:44:22.189Z,9.00
2019-04-09T04:45:22.080Z,9.50
2019-04-09T04:46:22.880Z,9.40
2019-04-09T04:47:21.899Z,9.30
2019-04-09T04:48:21.930Z,9.60
2019-04-09T04:49:21.811Z,9.90
2019-04-09T04:50:21.636Z,9.70
2019-04-09T04:51:22.339Z,9.30
2019-04-09T04:52:21.744Z,9.40
2019-04-09T04:53:22.374Z,9.60
2019-04-09T04:54:21.647Z,9.70
2019-04-09T04:55:21.211Z,9.50
2019-04-09T04:56:21.538Z,9.60
2019-04-09T04:57:23.650Z,9.50
2019-04-09T04:58:20.962Z,9.50
2019-04-09T04:59:20.875Z,9.30
2019-04-09T05:00:20.798Z,10.00
2019-04-09T05:01:20.700Z,9.70
2019-04-09T05:02:20.626Z,9.90
2019-04-09T05:03:20.540Z,9.30
2019-04-09T05:04:20.450Z,9.00
2019-04-09T05:05:20.362Z,9.40
2019-04-09T05:06:20.287Z,10.10
2019-04-09T05:07:20.201Z,9.20
2019-04-09T05:08:20.125Z,9.40
2019-04-09T05:09:20.026Z,10.10
2019-04-09T05:10:19.938Z,10.10
2019-04-09T05:11:20.764Z,9.90
2019-04-09T05:12:19.777Z,9.50
2019-04-09T05:13:20.620Z,9.70
2019-04-09T05:14:19.601Z,9.60
2019-04-09T05:15:19.541Z,9.50
2019-04-09T05:16:20.127Z,9.90
2019-04-09T05:17:20.486Z,9.70
2019-04-09T05:18:19.531Z,9.90
2019-04-09T05:19:20.053Z,9.50
2019-04-09T05:20:19.505Z,10.00
2019-04-09T05:21:19.010Z,10.10
2019-04-09T05:22:19.006Z,9.60
2019-04-09T05:23:19.159Z,10.00
2019-04-09T05:24:18.752Z,9.90
2019-04-09T05:25:18.916Z,9.90
2019-04-09T05:26:18.579Z,9.80
2019-04-09T05:27:18.505Z,9.70
2019-04-09T05:28:18.544Z,10.80
2019-04-09T05:29:18.333Z,10.30
2019-04-09T05:30:18.349Z,10.40
2019-04-09T05:31:18.901Z,9.60
2019-04-09T05:32:18.293Z,10.20
2019-04-09T05:33:18.493Z,11.30
2019-04-09T05:34:17.909Z,9.60
2019-04-09T05:35:18.909Z,10.00
2019-04-09T05:36:18.048Z,10.00
2019-04-09T05:37:17.654Z,10.30
2019-04-09T05:38:17.664Z,10.60
2019-04-09T05:39:17.746Z,10.20
2019-04-09T05:40:17.391Z,10.20
2019-04-09T05:41:17.335Z,10.20
2019-04-09T05:42:17.285Z,10.00
2019-04-09T05:43:17.141Z,10.30
2019-04-09T05:44:17.056Z,9.90
2019-04-09T05:45:17.931Z,10.40
2019-04-09T05:46:16.892Z,10.20
2019-04-09T05:47:16.806Z,10.10
2019-04-09T05:48:17.121Z,10.00
2019-04-09T05:49:16.631Z,10.10
2019-04-09T05:50:17.267Z,10.10
2019-04-09T05:51:17.220Z,9.90
2019-04-09T05:52:17.283Z,10.20
2019-04-09T05:53:16.293Z,9.70
2019-04-09T05:54:16.206Z,10.00
2019-04-09T05:55:16.242Z,9.80
2019-04-09T05:56:16.055Z,9.50
2019-04-09T05:57:15.955Z,10.30
2019-04-09T05:58:15.868Z,10.00
2019-04-09T05:59:15.794Z,9.70
2019-04-09T06:00:15.734Z,9.50
2019-04-09T06:01:15.632Z,9.70
2019-04-09T06:02:15.666Z,9.60
2019-04-09T06:03:15.456Z,10.40
2019-04-09T06:04:15.844Z,10.10
2019-04-09T06:05:16.294Z,9.40
2019-04-09T06:06:15.719Z,10.00
2019-04-09T06:07:15.120Z,9.70
2019-04-09T06:08:15.770Z,9.60
2019-04-09T06:09:15.013Z,10.00
2019-04-09T06:10:14.857Z,10.10
2019-04-09T06:11:15.607Z,10.10
2019-04-09T06:12:14.695Z,10.20
2019-04-09T06:13:15.404Z,9.90
2019-04-09T06:14:14.755Z,11.80
2019-04-09T06:15:14.971Z,11.00
2019-04-09T06:16:14.361Z,10.30
2019-04-09T06:17:14.270Z,10.30
2019-04-09T06:18:14.184Z,10.50
2019-04-09T06:19:14.825Z,9.90
2019-04-09T06:20:14.802Z,10.10
2019-04-09T06:21:18.500Z,9.40
2019-04-09T06:22:13.961Z,9.90
2019-04-09T06:23:14.725Z,10.20
2019-04-09T06:24:14.403Z,11.00
2019-04-09T06:25:15.191Z,11.10
2019-04-09T06:26:14.318Z,10.80
2019-04-09T06:27:14.046Z,10.60
2019-04-09T06:28:14.150Z,9.60
2019-04-09T06:29:19.315Z,9.50
2019-04-09T06:30:13.433Z,9.50
2019-04-09T06:31:13.835Z,9.50
2019-04-09T06:32:13.950Z,9.40
2019-04-09T06:33:12.935Z,9.50
2019-04-09T06:34:14.669Z,9.50
2019-04-09T06:35:13.819Z,9.50
2019-04-09T06:36:12.673Z,9.60
2019-04-09T06:37:12.598Z,9.50
2019-04-09T06:38:12.511Z,9.60
2019-04-09T06:39:12.444Z,9.30
2019-04-09T06:40:12.488Z,9.70
2019-04-09T06:41:12.261Z,9.20
2019-04-09T06:42:12.859Z,9.60
2019-04-09T06:43:12.767Z,9.40
2019-04-09T06:44:12.685Z,9.10
2019-04-09T06:45:11.923Z,9.40
2019-04-09T06:46:11.839Z,10.00
2019-04-09T06:47:12.690Z,9.50
2019-04-09T06:48:11.673Z,9.00
2019-04-09T06:49:12.238Z,9.30
2019-04-09T06:50:11.513Z,8.90
2019-04-09T06:51:11.589Z,9.20
2019-04-09T06:52:12.377Z,10.00
2019-04-09T06:53:11.251Z,9.20
2019-04-09T06:54:12.303Z,9.10
2019-04-09T06:55:12.365Z,9.50
2019-04-09T06:56:11.470Z,9.50
2019-04-09T06:57:10.925Z,9.60
2019-04-09T06:58:10.838Z,9.10
2019-04-09T06:59:11.268Z,9.00
2019-04-09T07:00:10.768Z,8.50
2019-04-09T07:01:10.795Z,8.50
2019-04-09T07:02:11.219Z,9.20
2019-04-09T07:03:11.258Z,9.60
2019-04-09T07:04:10.342Z,9.30
2019-04-09T07:05:11.199Z,9.70
2019-04-09T07:06:10.322Z,8.80
2019-04-09T07:07:10.090Z,9.10
2019-04-09T07:08:10.411Z,8.50
2019-04-09T07:09:10.178Z,9.00
2019-04-09T07:10:09.840Z,8.70
2019-04-09T07:11:15.189Z,8.40
2019-04-09T07:12:09.666Z,9.00
2019-04-09T07:13:09.590Z,8.80
2019-04-09T07:14:10.470Z,8.20
2019-04-09T07:15:09.448Z,8.70
2019-04-09T07:16:09.598Z,8.30
2019-04-09T07:17:09.965Z,8.80
2019-04-09T07:18:09.180Z,8.40
2019-04-09T07:19:09.091Z,8.50
2019-04-09T07:20:09.488Z,8.30
2019-04-09T07:21:08.937Z,8.10
2019-04-09T07:22:08.842Z,8.30
2019-04-09T07:23:09.850Z,8.00
2019-04-09T07:24:08.678Z,8.00
2019-04-09T07:25:09.588Z,8.20
2019-04-09T07:26:11.520Z,8.00
2019-04-09T07:27:08.441Z,7.90
2019-04-09T07:28:10.619Z,8.30
2019-04-09T07:29:08.322Z,8.20
2019-04-09T07:30:11.040Z,8.10
2019-04-09T07:31:08.870Z,8.10
2019-04-09T07:32:08.019Z,7.80
2019-04-09T07:33:11.236Z,8.20
2019-04-09T07:34:07.854Z,8.40
2019-04-09T07:35:07.779Z,8.20
2019-04-09T07:36:07.914Z,8.40
2019-04-09T07:37:10.238Z,7.90
2019-04-09T07:38:07.731Z,8.10
2019-04-09T07:39:07.444Z,7.60
2019-04-09T07:40:08.165Z,8.00
2019-04-09T07:41:09.290Z,7.70
2019-04-09T07:42:10.834Z,7.90
2019-04-09T07:43:08.031Z,7.90
2019-04-09T07:44:07.774Z,7.70
2019-04-09T07:45:10.261Z,7.50
2019-04-09T07:46:07.182Z,7.60
2019-04-09T07:47:06.794Z,7.70
2019-04-09T07:48:07.151Z,8.20
2019-04-09T07:49:08.296Z,7.70
2019-04-09T07:50:08.890Z,8.00
2019-04-09T07:51:07.410Z,7.50
2019-04-09T07:52:08.712Z,7.80
2019-04-09T07:53:06.495Z,7.70
2019-04-09T07:54:06.333Z,7.80
2019-04-09T07:55:06.757Z,7.70
2019-04-09T07:56:07.095Z,7.30
2019-04-09T07:57:06.003Z,7.40
2019-04-09T07:58:08.200Z,7.30
2019-04-09T07:59:05.819Z,7.60
2019-04-09T08:00:14.419Z,8.30
2019-04-09T08:01:06.283Z,8.10
2019-04-09T08:02:06.242Z,7.30
2019-04-09T08:03:05.507Z,8.10
2019-04-09T08:04:07.645Z,7.50
2019-04-09T08:05:05.345Z,7.80
2019-04-09T08:06:05.257Z,7.90
2019-04-09T08:07:06.390Z,7.70
2019-04-09T08:08:06.577Z,7.60
2019-04-09T08:09:05.021Z,7.90
2019-04-09T08:10:05.987Z,7.80
2019-04-09T08:11:07.197Z,7.20
2019-04-09T08:12:04.821Z,7.80
2019-04-09T08:13:05.488Z,8.20
2019-04-09T08:14:04.622Z,7.40
2019-04-09T08:15:04.614Z,7.50
2019-04-09T08:16:06.321Z,7.20
2019-04-09T08:17:04.541Z,7.40
2019-04-09T08:18:09.656Z,7.10
2019-04-09T08:19:04.210Z,8.10
2019-04-09T08:20:05.669Z,7.20
2019-04-09T08:21:04.170Z,7.50
2019-04-09T08:22:06.886Z,6.80
2019-04-09T08:23:03.903Z,7.10
2019-04-09T08:24:03.920Z,7.10
2019-04-09T08:25:04.344Z,7.60
2019-04-09T08:26:05.115Z,7.60
2019-04-09T08:27:03.753Z,7.60
2019-04-09T08:28:03.499Z,7.90
2019-04-09T08:29:03.425Z,7.60
2019-04-09T08:30:16.824Z,7.50
2019-04-09T08:31:03.260Z,7.80
2019-04-09T08:32:12.217Z,7.40
2019-04-09T08:33:04.230Z,7.10
2019-04-09T08:34:03.023Z,7.40
2019-04-09T08:35:06.138Z,7.30
2019-04-09T08:36:03.831Z,7.00
2019-04-09T08:37:03.008Z,7.10
2019-04-09T08:38:02.699Z,8.10
2019-04-09T08:39:04.753Z,7.40
2019-04-09T08:40:03.705Z,7.50
2019-04-09T08:41:02.461Z,7.50
2019-04-09T08:42:02.387Z,7.30
2019-04-09T08:43:05.291Z,7.70
2019-04-09T08:44:05.416Z,7.70
2019-04-09T08:45:03.009Z,7.40
2019-04-09T08:46:02.075Z,7.40
2019-04-09T08:47:03.537Z,7.80
2019-04-09T08:48:01.913Z,6.90
2019-04-09T08:49:02.091Z,7.50
2019-04-09T08:50:01.766Z,7.20
2019-04-09T08:51:04.319Z,7.20
2019-04-09T08:52:02.152Z,7.90
2019-04-09T08:53:01.512Z,7.20
2019-04-09T08:54:02.432Z,7.30
2019-04-09T08:55:02.641Z,7.70
2019-04-09T08:56:05.849Z,7.00
2019-04-09T08:57:02.011Z,7.80
2019-04-09T08:58:01.342Z,7.40
2019-04-09T08:59:01.043Z,7.40
2019-04-09T09:00:01.837Z,7.00
2019-04-09T09:02:12.428Z,7.50
2019-04-09T09:03:00.733Z,7.50
2019-04-09T09:04:06.047Z,7.20
2019-04-09T09:05:09.047Z,7.10
2019-04-09T09:06:04.018Z,7.30
2019-04-09T09:07:00.412Z,7.50
2019-04-09T09:08:03.731Z,7.10
2019-04-09T09:09:01.234Z,7.30
2019-04-09T09:10:01.246Z,7.50
2019-04-09T09:11:00.103Z,7.10
2019-04-09T09:12:05.236Z,7.30
2019-04-09T09:12:59.930Z,7.20
2019-04-09T09:14:00.261Z,6.80
2019-04-09T09:14:59.777Z,6.90
2019-04-09T09:15:59.691Z,6.80
2019-04-09T09:17:04.947Z,6.80
2019-04-09T09:17:59.541Z,7.10
2019-04-09T09:19:00.349Z,7.30
2019-04-09T09:20:02.079Z,7.00
2019-04-09T09:21:12.395Z,6.90
2019-04-09T09:22:01.252Z,7.50
2019-04-09T09:22:59.869Z,7.60
2019-04-09T09:23:59.802Z,7.30
2019-04-09T09:24:59.729Z,7.30
2019-04-09T09:25:59.489Z,7.30
2019-04-09T09:26:58.818Z,7.00
2019-04-09T09:28:00.255Z,7.10
2019-04-09T09:28:59.638Z,7.10
2019-04-09T09:29:58.580Z,6.90
2019-04-09T09:31:08.834Z,7.00
2019-04-09T09:32:01.214Z,7.20
2019-04-09T09:32:58.342Z,6.60
2019-04-09T09:33:58.989Z,7.10
2019-04-09T09:35:00.232Z,6.70
2019-04-09T09:35:58.699Z,6.70
2019-04-09T09:36:58.334Z,6.80
2019-04-09T09:37:59.320Z,6.90
2019-04-09T09:39:00.426Z,7.10
2019-04-09T09:40:00.322Z,7.20
2019-04-09T09:40:57.879Z,7.50
2019-04-09T09:41:57.619Z,7.00
2019-04-09T09:42:57.543Z,6.50
2019-04-09T09:43:58.466Z,7.10
2019-04-09T09:45:01.834Z,6.90
2019-04-09T09:46:02.120Z,7.10
2019-04-09T09:46:57.219Z,7.00
2019-04-09T09:47:58.239Z,7.10
2019-04-09T09:48:59.315Z,7.00
2019-04-09T09:49:57.019Z,7.40
2019-04-09T09:50:57.921Z,7.20
2019-04-09T09:51:56.819Z,7.40
2019-04-09T09:52:59.053Z,7.40
2019-04-09T09:54:01.895Z,7.30
2019-04-09T09:54:56.570Z,7.10
2019-04-09T09:55:59.445Z,7.00
2019-04-09T09:56:56.408Z,7.50
2019-04-09T09:57:56.531Z,6.70
2019-04-09T09:58:56.561Z,6.80
2019-04-09T09:59:59.656Z,6.60
2019-04-09T10:01:07.309Z,6.20
2019-04-09T10:02:00.970Z,6.90
2019-04-09T10:02:56.891Z,7.10
2019-04-09T10:03:56.754Z,6.80
2019-04-09T10:04:56.458Z,6.80
2019-04-09T10:05:55.773Z,7.10
2019-04-09T10:06:55.600Z,6.90
2019-04-09T10:08:01.949Z,6.80
2019-04-09T10:08:56.148Z,7.20
2019-04-09T10:09:56.099Z,7.00
2019-04-09T10:10:59.265Z,7.00
2019-04-09T10:11:55.605Z,6.80
2019-04-09T10:12:58.737Z,6.60
2019-04-09T10:13:55.430Z,7.30
2019-04-09T10:14:54.991Z,7.20
2019-04-09T10:15:55.089Z,7.40
2019-04-09T10:16:55.594Z,7.00
2019-04-09T10:17:55.772Z,7.00
2019-04-09T10:19:02.673Z,7.10
2019-04-09T10:19:57.122Z,7.10
2019-04-09T10:20:54.460Z,7.00
2019-04-09T10:21:55.106Z,7.20
2019-04-09T10:22:57.999Z,7.30
2019-04-09T10:24:05.513Z,6.80
2019-04-09T10:24:54.823Z,7.80
2019-04-09T10:25:54.358Z,7.10
2019-04-09T10:26:53.974Z,7.20
2019-04-09T10:27:56.123Z,7.70
2019-04-09T10:28:58.283Z,7.20
2019-04-09T10:29:54.429Z,7.30
2019-04-09T10:30:55.260Z,7.40
2019-04-09T10:31:53.562Z,7.60
2019-04-09T10:32:54.380Z,7.50
2019-04-09T10:33:53.453Z,7.90
2019-04-09T10:34:56.361Z,8.00
2019-04-09T10:35:53.248Z,8.00
2019-04-09T10:36:53.163Z,8.30
2019-04-09T10:37:53.646Z,7.90
2019-04-09T10:38:56.404Z,8.40
2019-04-09T10:39:53.374Z,9.20
2019-04-09T10:40:53.312Z,8.60
2019-04-09T10:41:52.750Z,8.60
2019-04-09T10:42:52.676Z,8.60
2019-04-09T10:43:53.111Z,8.70
2019-04-09T10:44:53.080Z,8.40
2019-04-09T10:45:56.455Z,8.30
2019-04-09T10:46:52.352Z,9.50
2019-04-09T10:47:52.268Z,9.70
2019-04-09T10:48:53.052Z,9.40
2019-04-09T10:49:54.180Z,9.30
2019-04-09T10:50:52.341Z,10.20
2019-04-09T10:51:52.021Z,10.10
2019-04-09T10:52:54.229Z,10.40
2019-04-09T10:53:52.248Z,10.90
2019-04-09T10:54:51.999Z,11.40
2019-04-09T10:55:55.016Z,10.80
2019-04-09T10:56:52.911Z,11.10
2019-04-09T10:57:51.465Z,11.30
2019-04-09T10:58:54.054Z,11.00
2019-04-09T10:59:51.302Z,11.70
2019-04-09T11:00:51.365Z,12.50
2019-04-09T11:01:55.101Z,12.60
2019-04-09T11:02:51.333Z,12.80
2019-04-09T11:03:51.753Z,12.90
2019-04-09T11:04:51.599Z,12.40
2019-04-09T11:05:52.839Z,12.80
2019-04-09T11:06:50.837Z,12.50
2019-04-09T11:07:51.701Z,12.80
2019-04-09T11:08:51.678Z,13.40
2019-04-09T11:09:50.518Z,12.70
2019-04-09T11:10:50.662Z,12.80
2019-04-09T11:11:52.961Z,13.00
2019-04-09T11:12:50.278Z,13.00
2019-04-09T11:13:50.548Z,13.60
2019-04-09T11:14:50.128Z,12.80
2019-04-09T11:15:53.883Z,13.00
2019-04-09T11:16:50.599Z,13.10
2019-04-09T11:17:50.837Z,12.60
2019-04-09T11:18:49.817Z,13.70
2019-04-09T11:19:49.815Z,13.50
2019-04-09T11:20:49.656Z,13.20
2019-04-09T11:21:50.032Z,12.60
2019-04-09T11:22:51.003Z,12.70
2019-04-09T11:23:49.437Z,13.30
2019-04-09T11:24:50.270Z,13.40
2019-04-09T11:25:49.606Z,12.70
2019-04-09T11:26:51.669Z,12.20
2019-04-09T11:27:49.376Z,13.20
2019-04-09T11:28:49.048Z,12.50
2019-04-09T11:29:49.739Z,11.80
2019-04-09T11:30:49.898Z,12.80
2019-04-09T11:31:53.527Z,11.90
2019-04-09T11:32:48.746Z,12.70
2019-04-09T11:33:48.669Z,11.90
2019-04-09T11:34:48.594Z,11.60
2019-04-09T11:35:48.519Z,11.30
2019-04-09T11:36:49.502Z,12.00
2019-04-09T11:37:48.744Z,11.60
2019-04-09T11:38:48.294Z,11.70
2019-04-09T11:39:48.269Z,11.60
2019-04-09T11:40:48.145Z,11.30
2019-04-09T11:41:48.070Z,11.30
2019-04-09T11:42:47.995Z,11.60
2019-04-09T11:43:48.694Z,11.60
2019-04-09T11:44:47.845Z,12.00
2019-04-09T11:45:48.185Z,11.40
2019-04-09T11:46:47.695Z,11.60
2019-04-09T11:47:47.637Z,10.90
2019-04-09T11:48:47.773Z,12.10
2019-04-09T11:49:47.470Z,12.00
2019-04-09T11:50:47.395Z,11.80
2019-04-09T11:51:47.929Z,11.80
2019-04-09T11:52:47.249Z,11.40
2019-04-09T11:53:48.156Z,11.70
2019-04-09T11:54:47.102Z,11.70
2019-04-09T11:55:47.274Z,11.10
2019-04-09T11:56:46.958Z,11.50
2019-04-09T11:57:46.897Z,11.60
2019-04-09T11:58:46.916Z,11.30
2019-04-09T11:59:46.734Z,11.60
2019-04-09T12:00:46.667Z,10.60
2019-04-09T12:01:59.190Z,10.40
2019-04-09T12:02:46.508Z,10.70
2019-04-09T12:03:47.379Z,10.00
2019-04-09T12:04:46.359Z,12.10
2019-04-09T12:05:48.570Z,11.90
2019-04-09T12:06:47.202Z,10.40
2019-04-09T12:07:46.311Z,10.70
2019-04-09T12:08:46.679Z,10.00
2019-04-09T12:09:46.000Z,10.20
2019-04-09T12:10:45.909Z,10.00
2019-04-09T12:11:45.842Z,9.90
2019-04-09T12:12:46.234Z,10.00
2019-04-09T12:13:46.434Z,10.50
2019-04-09T12:14:46.361Z,10.00
2019-04-09T12:15:45.535Z,9.30
2019-04-09T12:16:45.894Z,10.20
2019-04-09T12:17:45.385Z,9.80
2019-04-09T12:18:46.206Z,9.70
2019-04-09T12:19:57.475Z,10.30
2019-04-09T12:20:45.161Z,9.50
2019-04-09T12:21:45.670Z,9.60
2019-04-09T12:22:45.013Z,9.40
2019-04-09T12:23:44.936Z,9.50
2019-04-09T12:24:45.083Z,9.80
2019-04-09T12:25:44.786Z,9.60
2019-04-09T12:26:44.715Z,11.20
2019-04-09T12:27:44.639Z,9.90
2019-04-09T12:28:45.573Z,9.50
2019-04-09T12:29:44.740Z,9.90
2019-04-09T12:30:44.412Z,9.60
2019-04-09T12:31:44.337Z,10.30
2019-04-09T12:32:44.275Z,9.50
2019-04-09T12:33:44.187Z,9.40
2019-04-09T12:34:44.113Z,10.60
2019-04-09T12:35:44.492Z,9.40
2019-04-09T12:36:44.752Z,9.00
2019-04-09T12:37:44.003Z,8.60
2019-04-09T12:38:43.827Z,8.30
2019-04-09T12:39:44.396Z,9.60
2019-04-09T12:40:44.645Z,8.90
2019-04-09T12:41:46.272Z,7.90
2019-04-09T12:42:43.526Z,8.50
2019-04-09T12:43:46.073Z,7.40
2019-04-09T12:44:44.300Z,7.60
2019-04-09T12:45:43.306Z,7.50
2019-04-09T12:46:43.703Z,7.80
2019-04-09T12:47:43.152Z,7.60
2019-04-09T12:48:44.115Z,8.20
2019-04-09T12:49:43.299Z,7.90
2019-04-09T12:50:42.928Z,8.00
2019-04-09T12:51:42.961Z,7.80
2019-04-09T12:52:42.777Z,7.80
2019-04-09T12:53:42.703Z,7.40
2019-04-09T12:54:42.630Z,7.40
2019-04-09T12:55:42.603Z,7.60
2019-04-09T12:56:42.478Z,8.00
2019-04-09T12:57:42.404Z,7.70
2019-04-09T12:58:43.052Z,8.30
2019-04-09T12:59:43.269Z,8.00
2019-04-09T13:00:42.350Z,8.00
2019-04-09T13:01:42.103Z,8.00
2019-04-09T13:02:42.753Z,7.40
2019-04-09T13:03:42.867Z,7.70
2019-04-09T13:04:42.023Z,8.00
2019-04-09T13:05:41.804Z,7.60
2019-04-09T13:06:41.729Z,7.50
2019-04-09T13:07:42.290Z,7.00
2019-04-09T13:08:42.198Z,7.20
2019-04-09T13:09:41.505Z,7.20
2019-04-09T13:10:42.147Z,7.40
2019-04-09T13:11:42.224Z,7.10
2019-04-09T13:12:42.331Z,7.50